Aeroporto :
LOGIN :

Iscrizione | Disclaimer

   EN    FR    IT 

 










Sommario :    VFR   VFR Marginale   IFR   IFR Intensivo   IFR Molto Intensivo
Visibilità : 
Base nubi : 
>= 8 km
>= 3000ft
5 / 8 km
1000 / 3000 ft
1500m / 5 km
500 / 1000 ft
800 / 1500m
200 / 500 ft
< 800m
< 200 ft
Simboli :   Temporali  Nebbia  Neve Forte  Precipitazioni Forti  Vento > 20 kt
SIGMETs :   Varie  Temporali  Ghiacco  Turbolenza  Onda orograficha  Ceneri Vulcaniche






- Altitudine del aeroporto : 75 ft
- Codice IATA : MRH


EGYM - RAF Marham

ULTIMO METAR :
  • 282150Z 11002KT CAVOK 12/05 Q1032 NOSIG RMK BLU BLU

METARs OBSOLETI :
  • 282120Z 12005KT CAVOK 13/04 Q1032 NOSIG RMK BLU BLU
  • 282050Z 11007KT CAVOK 14/05 Q1032 NOSIG RMK BLU BLU
  • 282020Z 13005KT CAVOK 15/05 Q1032 NOSIG RMK BLU BLU
  • 281950Z 12008KT CAVOK 15/05 Q1032 NOSIG RMK BLU BLU
  • 281920Z 13010KT CAVOK 16/05 Q1032 NOSIG RMK BLU BLU

TAF TAF EGYM
Valido dal 28 a 21 ore il 29 a 02 ore UTC


281921Z 2821/2902 12008KT CAVOK



MetMap, La meteo Aeronautica in un colpo d'occhio ! - Copyright ORBIFLY Dicembre 2007 - Disclaimer

ORBIFLY MET'MAP TEAM :

Programmazione e sviluppo : Alexandra Zaïnal
Concezione : Baudouin d'Aumeries
Aiuto per la programmazione : Marc-Olivier Méhu
Supporto tecnico e logistico : Manuel Goepfert
Aiuto per la traduzione : Arnaldo La Scala

Contatto : metmap@orbifly.com




FONTI E CREDITI :

   NOAA